• Join FlightAware (Why Join?)
  • Login
  • US Flag 
Rudolph Flight #1: Arrived! 
02:04PM EST


 

Airport Tracker/Info


-or-


 

Live Flight TrackerFlight Track Log ✈ DAL2075 ✈ 24-Apr-2013 ✈ KATL - KMCI

Flight Track Log - Related Links

Times and Time Zones

All times are in EDT time to prevent confusion due to time zone crossing. See the DAL2075 flight status page for this flight to view local times or setup timezone preferences in your user account.

Time Position Orientation Groundspeed Altitude Reporting Facility
EDT Latitude Longitude Course Direction KTS MPH feet Rate Location/Type
10:54AM 33.6500 -84.5000 270° West 227 261 3,400  Level Atlanta TRACON
10:55AM 33.6667 -84.5833 284° West 258 297 7,100 2,460 Climbing Atlanta TRACON
10:56AM 33.8001 -84.3602 270° West  Level FlightAware Approximate
10:57AM 33.8001 -84.4967 270° West  Level FlightAware Approximate
10:57AM 33.7083 -84.8231 282° West 315 362 11,700  Level Atlanta Center
10:58AM 33.8000 -84.6332 270° West  Level FlightAware Approximate
10:58AM 33.7261 -84.9506 280° West 375 432 14,600  Level Atlanta Center
10:59AM 33.8001 -84.7697 270° West  Level FlightAware Approximate
10:59AM 33.7439 -85.0806 279° West 392 451 17,200  Level Atlanta Center
11:00AM 33.7239 -85.2103 260° West 386 444 19,100 1,860 Climbing Atlanta Center
11:01AM 33.7017 -85.3472 259° West 407 468 21,000 1,860 Climbing Atlanta Center
11:02AM 33.7231 -85.4825 281° West 406 467 22,900 1,500 Climbing Atlanta Center
11:03AM 33.7592 -85.6031 290° West 413 475 24,100 1,680 Climbing Atlanta Center
11:04AM 33.8014 -85.7361 291° West 429 494 26,300 1,920 Climbing Atlanta Center
11:05AM 33.8394 -85.8569 291° West 421 484 28,000 1,740 Climbing Atlanta Center
11:06AM 33.8769 -85.9856 289° West 409 471 29,800 960 Climbing Atlanta Center
11:07AM 33.9125 -86.1114 289° West 404 465 30,000 60 Climbing Atlanta Center
11:08AM 33.9519 -86.2400 290° West 410 472 30,000  Level Atlanta Center
11:09AM 33.9914 -86.3664 291° West 410 472 30,000  Level Atlanta Center
11:10AM 34.0308 -86.4928 291° West 410 472 30,000  Level Atlanta Center
11:12AM 34.1175 -86.7969 289° West 403 464 30,000  Level Memphis Center
11:13AM 34.1567 -86.9286 290° West 403 464 30,000  Level Memphis Center
11:14AM 34.1956 -87.0525 291° West 396 456 30,000  Level Memphis Center
11:15AM 34.2297 -87.1692 290° West 386 444 30,000 60 Level Memphis Center
11:16AM 34.2683 -87.2958 290° West 393 452 30,200 900 Climbing Memphis Center
11:17AM 34.3028 -87.4231 288° West 404 465 31,900 900 Climbing Memphis Center
11:18AM 34.3414 -87.5525 290° West 404 465 32,000  Climbing Memphis Center
11:19AM 34.3753 -87.6747 289° West 399 459 32,000  Level Memphis Center
11:20AM 34.4136 -87.8044 290° West 399 459 32,000  Level Memphis Center
11:21AM 34.4469 -87.9117 291° West 399 459 32,000  Level Memphis Center
11:22AM 34.4806 -88.0317 289° West 392 451 32,000  Level Memphis Center
11:23AM 34.5161 -88.1567 289° West 381 438 32,000  Level Memphis Center
11:24AM 34.5519 -88.2894 288° West 400 460 32,000  Level Memphis Center
11:25AM 34.5872 -88.4147 289° West 400 460 32,000  Level Memphis Center
11:26AM 34.6206 -88.5350 289° West 394 453 32,000  Level Memphis Center
11:27AM 34.6600 -88.6731 289° West 394 453 32,000  Level Memphis Center
11:28AM 34.6950 -88.8011 288° West 394 453 32,000  Level Memphis Center
11:29AM 34.7300 -88.9244 289° West 399 459 32,000  Level Memphis Center
11:30AM 34.7625 -89.0503 287° West 399 459 32,000  Level Memphis Center
11:31AM 34.7994 -89.1786 289° West 399 459 32,000  Level Memphis Center
11:32AM 34.8317 -89.3047 287° West 399 459 32,000  Level Memphis Center
11:33AM 34.8683 -89.4308 290° West 399 459 32,000  Level Memphis Center
11:34AM 34.9025 -89.5544 289° West 399 459 32,000  Level Memphis Center
11:35AM 34.9367 -89.6783 289° West 389 448 32,000 300 Level Memphis Center
11:36AM 34.9747 -89.8097 290° West 389 448 32,600 900 Climbing Memphis Center
11:37AM 35.0067 -89.9336 288° West 395 455 33,900 660 Climbing Memphis Center
11:38AM 35.0569 -90.0425 299° West 383 441 34,000  Climbing Memphis Center
11:39AM 35.1303 -90.1439 312° West 386 444 34,000  Level Memphis Center
11:40AM 35.2033 -90.2428 312° West 391 450 34,000  Level Memphis Center
11:41AM 35.2786 -90.3419 313° West 391 450 34,000  Level Memphis Center
11:42AM 35.3536 -90.4436 312° West 391 450 34,000  Level Memphis Center
11:43AM 35.4181 -90.5353 311° West 396 456 34,000 -420 Level Memphis Center
11:44AM 35.4911 -90.6350 312° West 396 456 33,200 -1,740 Descending Memphis Center
11:45AM 35.5617 -90.7372 310° West 396 456 30,600 -2,580 Descending Memphis Center
11:46AM 35.6322 -90.8294 313° West 385 443 28,100 -1,320 Descending Memphis Center
11:47AM 35.7069 -90.9425 309° West 385 443 28,000 -60 Descending Memphis Center
11:48AM 35.7772 -91.0453 310° West 385 443 28,000  Level Memphis Center
11:49AM 35.8517 -91.1458 312° West 390 449 28,000  Level Memphis Center
11:50AM 35.9242 -91.2492 311° West 390 449 28,000  Level Memphis Center
11:51AM 35.9942 -91.3525 310° West 385 443 28,000  Level Memphis Center
11:52AM 36.0581 -91.4381 313° West 385 443 28,000  Level Memphis Center
11:53AM 36.1281 -91.5417 310° West 385 443 28,000  Level Memphis Center
11:54AM 36.2000 -91.6431 311° West 385 443 28,000  Level Memphis Center
11:55AM 36.2697 -91.7419 311° West 385 443 28,000  Level Memphis Center
11:56AM 36.3500 -91.8489 313° West 385 443 28,000  Level Memphis Center
11:57AM 36.4194 -91.9481 311° West 385 443 28,000  Level Memphis Center
11:58AM 36.4869 -92.0528 309° West 385 443 28,000  Level Memphis Center
11:59AM 36.5564 -92.1522 311° West 385 443 28,000  Level Memphis Center
12:02PM 36.7225 -92.3897 311° West 380 437 28,000  Level Kansas City Center
12:03PM 36.7900 -92.4886 310° West 375 432 28,000  Level Kansas City Center
12:04PM 36.8572 -92.5892 310° West 375 432 28,000  Level Kansas City Center
12:05PM 36.9244 -92.6875 311° West 372 428 28,000  Level Kansas City Center
12:06PM 36.9903 -92.7872 310° West 370 426 28,000  Level Kansas City Center
12:07PM 37.0694 -92.9033 311° West 365 420 28,000  Level Kansas City Center
12:08PM 37.1350 -93.0011 310° West 365 420 28,000  Level Kansas City Center
12:09PM 37.2000 -93.0986 310° West 362 417 28,000  Level Kansas City Center
12:11PM 37.2819 -93.2310 310° West  Level FlightAware Approximate
12:11PM 37.3286 -93.2931 310° West 360 414 28,000  Level Kansas City Center
12:12PM 37.4142 -93.3661 326° Northwest 379 436 28,000  Level Kansas City Center
12:13PM 37.5150 -93.4228 336° Northwest 388 447 28,000  Level Kansas City Center
12:14PM 37.6150 -93.4764 337° Northwest 390 449 28,000 -240 Level Kansas City Center
12:15PM 37.7339 -93.5422 336° Northwest 386 444 27,600 -780 Descending Kansas City Center
12:16PM 37.8319 -93.5981 336° Northwest 383 441 26,400 -1,020 Descending Kansas City Center
12:17PM 37.9336 -93.6536 337° Northwest 392 451 25,500 -720 Descending Kansas City Center
12:19PM 38.0350 -93.7100 336° Northwest 394 453 25,000 -540 Descending Kansas City Center
12:20PM 38.1344 -93.7669 336° Northwest 391 450 24,500 -660 Descending Kansas City Center
12:21PM 38.2314 -93.8222 336° Northwest 384 442 23,700 -1,620 Descending Kansas City Center
12:22PM 38.3261 -93.8769 336° Northwest 376 433 21,200 -2,340 Descending Kansas City Center
12:23PM 38.4169 -93.9306 335° Northwest 364 419 18,900 -2,460 Descending Kansas City Center
12:24PM 38.5136 -93.9847 336° Northwest 352 405 16,200 -2,940 Descending Kansas City Center
12:25PM 38.6081 -94.0414 335° Northwest 338 389 12,800 -2,400 Descending Kansas City Center
12:26PM 38.6892 -94.0889 335° Northwest 335 386 11,300 -1,380 Descending Kansas City Center
12:27PM 38.7639 -94.1706 320° Northwest 315 362 10,000 -660 Descending Kansas City Center
12:28PM 38.8231 -94.2350 320° Northwest 295 339 10,000  Level Kansas City Center
12:29PM 38.8736 -94.3150 309° West 258 297 10,000 -480 Level Kansas City Center
12:30PM 38.9156 -94.3844 308° West 256 295 9,100 -1,200 Descending Kansas City Center
12:31PM 38.9558 -94.4544 307° West 256 295 7,600 -1,500 Descending Kansas City Center
12:32PM 39.0036 -94.5342 308° West 252 290 6,000 -900 Descending Kansas City Center
12:33PM 39.0458 -94.6028 308° West 255 293 5,800 -540 Descending Kansas City Center
12:34PM 39.1025 -94.6717 317° Northwest 252 290 4,900 -900 Descending Kansas City Center
12:35PM 39.1531 -94.7119 328° Northwest 223 257 4,000 -900 Descending Kansas City Center